Time;durP1;ratioP1;P1;durP2;ratioP2;P2;SDS_P1;SDS_P2;PMS_P1;PMS_P2;Temp;Humidity;BMP_temperature;BMP_pressure;BME280_temperature;BME280_humidity;BME280_pressure;Samples;Min_cycle;Max_cycle;Signal;HPM_P1;HPM_P2
2022/01/03 00:01:19;;;;;;;10.15;2.05;;;8.90;99.90;;;;;;5021334;28;20106;-81
2022/01/03 00:03:45;;;;;;;9.57;1.88;;;9.00;99.90;;;;;;5016806;28;20433;-81
2022/01/03 00:06:11;;;;;;;6.95;2.00;;;9.00;99.90;;;;;;5021882;28;20071;-81
2022/01/03 00:08:42;;;;;;;8.93;2.10;;;9.10;99.90;;;;;;5016098;28;20056;-81
2022/01/03 00:11:10;;;;;;;7.68;2.00;;;9.10;99.90;;;;;;5040078;28;20033;-81
2022/01/03 00:13:39;;;;;;;15.80;2.45;;;9.20;99.90;;;;;;5020526;28;20044;-81
2022/01/03 00:16:04;;;;;;;10.20;2.63;;;9.20;99.90;;;;;;5017166;28;20321;-81
2022/01/03 00:18:30;;;;;;;12.20;2.67;;;9.30;99.90;;;;;;5016040;28;20176;-81
2022/01/03 00:20:58;;;;;;;12.93;2.85;;;9.40;99.90;;;;;;5017445;28;20032;-81
2022/01/03 00:23:29;;;;;;;7.13;2.42;;;9.40;99.90;;;;;;5016287;28;20041;-80
2022/01/03 00:26:00;;;;;;;12.57;2.53;;;9.40;99.90;;;;;;5005157;28;20404;-81
2022/01/03 00:28:54;;;;;;;11.48;2.55;;;9.40;99.90;;;;;;5000979;28;20033;-81
2022/01/03 00:31:20;;;;;;;8.93;2.83;;;9.50;99.90;;;;;;5019203;28;20538;-81
2022/01/03 00:33:53;;;;;;;11.43;2.70;;;9.50;99.90;;;;;;5006991;28;20039;-81
2022/01/03 00:36:20;;;;;;;11.63;2.95;;;9.50;99.90;;;;;;5023684;28;20455;-81
2022/01/03 00:38:45;;;;;;;10.77;3.38;;;9.60;99.90;;;;;;4994599;28;20064;-81
2022/01/03 00:41:11;;;;;;;17.08;3.13;;;9.60;99.90;;;;;;5023077;28;20059;-81
2022/01/03 00:43:37;;;;;;;13.10;3.08;;;9.50;99.90;;;;;;5025826;28;20343;-81
2022/01/03 00:46:03;;;;;;;13.23;2.55;;;9.60;99.90;;;;;;5016868;28;20377;-81
2022/01/03 00:48:32;;;;;;;13.95;2.50;;;9.60;99.90;;;;;;5014377;28;20107;-81
2022/01/03 00:51:02;;;;;;;10.45;2.72;;;9.60;99.90;;;;;;5018448;28;20064;-81
2022/01/03 00:53:28;;;;;;;13.27;2.95;;;9.60;99.90;;;;;;5013451;28;20040;-81
2022/01/03 00:56:10;;;;;;;11.93;2.28;;;9.60;99.90;;;;;;5017190;28;20353;-81
2022/01/03 00:58:48;;;;;;;13.07;2.83;;;9.60;99.90;;;;;;5016972;28;20496;-81
2022/01/03 01:01:17;;;;;;;12.98;2.72;;;9.60;99.90;;;;;;5004897;28;20116;-80
2022/01/03 01:03:43;;;;;;;13.23;2.28;;;9.60;99.90;;;;;;5032340;28;20119;-81
2022/01/03 01:06:10;;;;;;;13.00;3.13;;;9.50;99.90;;;;;;5021813;28;20128;-80
2022/01/03 01:08:37;;;;;;;17.23;2.63;;;9.50;99.90;;;;;;5013564;28;20046;-81
2022/01/03 01:11:06;;;;;;;14.40;2.60;;;9.50;99.90;;;;;;5021440;28;20444;-80
2022/01/03 01:13:34;;;;;;;12.15;3.00;;;9.50;99.90;;;;;;5019733;28;20048;-80
2022/01/03 01:16:07;;;;;;;17.42;2.95;;;9.50;99.90;;;;;;5006311;28;20410;-80
2022/01/03 01:18:36;;;;;;;17.00;3.22;;;9.50;99.90;;;;;;4996591;28;20026;-81
2022/01/03 01:21:04;;;;;;;14.23;2.80;;;9.50;99.90;;;;;;5008689;28;20242;-81
2022/01/03 01:23:30;;;;;;;17.60;2.95;;;9.40;99.90;;;;;;5013938;28;20048;-80
2022/01/03 01:28:41;;;;;;;17.23;2.67;;;9.50;99.90;;;;;;5039194;28;20116;-81
2022/01/03 01:31:08;;;;;;;16.45;3.65;;;9.50;99.90;;;;;;5016788;28;20049;-81
2022/01/03 01:33:37;;;;;;;18.05;3.38;;;9.50;99.90;;;;;;4994073;28;20445;-80
2022/01/03 01:36:05;;;;;;;16.15;3.75;;;9.50;99.90;;;;;;5020367;28;20523;-80
2022/01/03 01:38:33;;;;;;;18.40;3.20;;;9.50;99.90;;;;;;5014660;28;20455;-80
2022/01/03 01:41:02;;;;;;;18.55;2.83;;;9.60;99.90;;;;;;5019087;28;20047;-81
2022/01/03 01:43:40;;;;;;;20.77;3.55;;;9.50;99.90;;;;;;5019101;28;20041;-81
2022/01/03 01:46:12;;;;;;;13.07;2.55;;;9.60;99.90;;;;;;5015969;28;20046;-81
2022/01/03 01:48:40;;;;;;;12.55;3.03;;;9.60;99.90;;;;;;4995522;28;20041;-80
2022/01/03 01:51:10;;;;;;;19.70;3.58;;;9.60;99.90;;;;;;5012829;28;20053;-80
2022/01/03 01:53:45;;;;;;;21.40;3.25;;;9.60;99.90;;;;;;5021343;28;20045;-81
2022/01/03 01:56:27;;;;;;;23.52;3.35;;;9.60;99.90;;;;;;5018067;28;20033;-81
2022/01/03 01:59:20;;;;;;;17.92;2.97;;;9.60;99.90;;;;;;5020505;28;20094;-81
2022/01/03 02:02:05;;;;;;;25.58;3.40;;;9.70;99.90;;;;;;4993019;28;20365;-81
2022/01/03 02:05:12;;;;;;;14.32;2.60;;;9.70;99.90;;;;;;5002555;28;20037;-81
2022/01/03 02:08:16;;;;;;;19.60;3.72;;;9.70;99.90;;;;;;5033188;28;20068;-81
2022/01/03 02:10:52;;;;;;;13.43;3.00;;;9.70;99.90;;;;;;5022891;28;20037;-80
2022/01/03 02:13:21;;;;;;;12.18;2.88;;;9.80;99.90;;;;;;5012368;28;20037;-81
2022/01/03 02:15:57;;;;;;;18.40;3.70;;;9.70;99.90;;;;;;5019464;28;20037;-81
2022/01/03 02:18:23;;;;;;;18.40;3.25;;;9.80;99.90;;;;;;5014670;28;20051;-81
2022/01/03 02:20:49;;;;;;;15.18;3.55;;;9.70;99.90;;;;;;5014588;28;20042;-80
2022/01/03 02:23:15;;;;;;;29.38;3.55;;;9.80;99.90;;;;;;5016628;28;20044;-80
2022/01/03 02:25:41;;;;;;;19.88;3.50;;;9.80;99.90;;;;;;4995376;28;20037;-81
2022/01/03 02:28:09;;;;;;;24.52;4.10;;;9.70;99.90;;;;;;5013058;28;20464;-81
2022/01/03 02:30:35;;;;;;;20.17;3.45;;;9.70;99.90;;;;;;5021601;28;20056;-80
2022/01/03 02:33:02;;;;;;;15.88;3.45;;;9.70;99.90;;;;;;5014860;28;20433;-81
2022/01/03 02:35:28;;;;;;;18.42;3.53;;;9.60;99.90;;;;;;5020600;28;20057;-80
2022/01/03 02:37:54;;;;;;;17.80;3.30;;;9.60;99.90;;;;;;5011261;28;20034;-81
2022/01/03 02:40:21;;;;;;;20.65;4.30;;;9.60;99.90;;;;;;5034693;28;20099;-80
2022/01/03 02:42:48;;;;;;;20.42;4.43;;;9.60;99.90;;;;;;5030328;28;20394;-80
2022/01/03 02:45:23;;;;;;;17.42;3.42;;;9.60;99.90;;;;;;5020987;28;20119;-80
2022/01/03 02:47:54;;;;;;;20.25;3.42;;;9.60;99.90;;;;;;5016600;28;20041;-80
2022/01/03 02:50:22;;;;;;;21.17;3.60;;;9.60;99.90;;;;;;4993386;28;20501;-80
2022/01/03 02:52:48;;;;;;;19.73;3.22;;;9.60;99.90;;;;;;5037898;28;20032;-80
2022/01/03 02:55:18;;;;;;;21.00;4.28;;;9.60;99.90;;;;;;5019947;28;20072;-80
2022/01/03 02:57:47;;;;;;;17.05;4.07;;;9.60;99.90;;;;;;4996899;28;20035;-80
2022/01/03 03:00:28;;;;;;;16.15;2.92;;;9.60;99.90;;;;;;5039382;28;20136;-81
2022/01/03 03:02:54;;;;;;;24.60;3.78;;;9.60;99.90;;;;;;5001132;28;20040;-81
2022/01/03 03:05:20;;;;;;;23.55;4.05;;;9.60;99.90;;;;;;5015510;28;20127;-81
2022/01/03 03:07:50;;;;;;;16.88;3.65;;;9.60;99.90;;;;;;5009682;28;20139;-81
2022/01/03 03:10:19;;;;;;;15.68;3.22;;;9.60;99.90;;;;;;5037847;28;20041;-81
2022/01/03 03:12:46;;;;;;;18.58;3.67;;;9.60;99.90;;;;;;5004126;28;20041;-81
2022/01/03 03:15:13;;;;;;;15.85;3.53;;;9.60;99.90;;;;;;5026068;28;20082;-80
2022/01/03 03:17:40;;;;;;;19.80;4.10;;;9.50;99.90;;;;;;5008054;28;20174;-80
2022/01/03 03:20:13;;;;;;;19.35;3.95;;;9.50;99.90;;;;;;5022437;28;20037;-80
2022/01/03 03:22:39;;;;;;;21.73;3.65;;;9.50;99.90;;;;;;5017639;28;20080;-80
2022/01/03 03:25:17;;;;;;;16.27;3.28;;;9.40;99.90;;;;;;5040124;28;20037;-80
2022/01/03 03:27:47;;;;;;;17.17;4.10;;;9.40;99.90;;;;;;5000168;28;20045;-81
2022/01/03 03:30:15;;;;;;;23.67;3.75;;;9.30;99.90;;;;;;5008354;28;20449;-80
2022/01/03 03:32:43;;;;;;;24.08;4.32;;;9.30;99.90;;;;;;5025570;28;20120;-80
2022/01/03 03:35:09;;;;;;;18.48;3.65;;;9.30;99.90;;;;;;5020029;28;20045;-80
2022/01/03 03:37:35;;;;;;;20.98;3.80;;;9.30;99.90;;;;;;5017785;28;20655;-81
2022/01/03 03:40:01;;;;;;;21.33;3.30;;;9.20;99.90;;;;;;5014500;28;20162;-80
2022/01/03 03:42:30;;;;;;;16.15;3.22;;;9.20;99.90;;;;;;5020390;28;20047;-80
2022/01/03 03:44:55;;;;;;;16.67;3.83;;;9.20;99.90;;;;;;5026196;28;20064;-81
2022/01/03 03:47:21;;;;;;;18.55;4.03;;;9.20;99.90;;;;;;5017770;28;20033;-80
2022/01/03 03:49:47;;;;;;;20.92;4.63;;;9.10;99.90;;;;;;5019973;28;20033;-80
2022/01/03 03:52:12;;;;;;;18.92;3.60;;;9.10;99.90;;;;;;5021141;28;20574;-80
2022/01/03 03:54:38;;;;;;;20.42;3.90;;;9.10;99.90;;;;;;5017452;28;20036;-81
2022/01/03 03:57:05;;;;;;;29.50;4.80;;;9.10;99.90;;;;;;5038320;28;20507;-80
2022/01/03 03:59:31;;;;;;;29.48;4.43;;;9.10;99.90;;;;;;5042894;28;20109;-80
2022/01/03 04:01:57;;;;;;;22.58;4.28;;;9.10;99.90;;;;;;5016921;28;20124;-80
2022/01/03 04:04:24;;;;;;;22.90;3.72;;;9.10;99.90;;;;;;5024498;28;20583;-81
2022/01/03 04:06:49;;;;;;;21.10;4.55;;;9.10;99.90;;;;;;5014098;28;20091;-80
2022/01/03 04:09:15;;;;;;;27.13;4.32;;;9.10;99.90;;;;;;4998533;28;20435;-80
2022/01/03 04:11:41;;;;;;;22.63;3.78;;;9.20;99.90;;;;;;4998978;28;20037;-80
2022/01/03 04:14:09;;;;;;;24.02;3.83;;;9.30;99.90;;;;;;5017530;28;20166;-80
2022/01/03 04:16:36;;;;;;;17.52;3.65;;;9.30;99.90;;;;;;5004249;28;20113;-80
2022/01/03 04:19:02;;;;;;;20.20;3.67;;;9.30;99.90;;;;;;5011002;28;20088;-80
2022/01/03 04:21:28;;;;;;;21.67;4.50;;;9.30;99.90;;;;;;4996843;28;20132;-80
2022/01/03 04:23:54;;;;;;;24.13;4.50;;;9.30;99.90;;;;;;5003784;28;20049;-80
2022/01/03 04:26:20;;;;;;;29.10;5.00;;;9.30;99.90;;;;;;5004113;28;20047;-80
2022/01/03 04:28:46;;;;;;;21.25;4.38;;;9.30;99.90;;;;;;5020855;28;20044;-80
2022/01/03 04:31:12;;;;;;;24.73;4.68;;;9.30;99.90;;;;;;5017632;28;20544;-80
2022/01/03 04:33:38;;;;;;;25.10;4.97;;;9.30;99.90;;;;;;4997112;28;20120;-80
2022/01/03 04:36:04;;;;;;;21.08;3.97;;;9.30;99.90;;;;;;5016566;28;20464;-80
2022/01/03 04:38:32;;;;;;;25.67;4.55;;;9.30;99.90;;;;;;5039120;28;20156;-80
2022/01/03 04:40:59;;;;;;;26.23;4.78;;;9.20;99.90;;;;;;5007772;28;20042;-80
2022/01/03 04:43:24;;;;;;;22.58;4.38;;;9.20;99.90;;;;;;5003847;28;20397;-80
2022/01/03 04:45:51;;;;;;;22.17;4.63;;;9.20;99.90;;;;;;5008614;28;20045;-80
2022/01/03 04:48:17;;;;;;;22.50;4.60;;;9.20;99.90;;;;;;5024262;28;20040;-80
2022/01/03 04:50:45;;;;;;;20.02;4.20;;;9.20;99.90;;;;;;5040143;28;20045;-81
2022/01/03 04:53:11;;;;;;;31.33;4.18;;;9.20;99.90;;;;;;5018893;28;20032;-80
2022/01/03 04:55:37;;;;;;;22.85;4.60;;;9.20;99.90;;;;;;5017394;28;20057;-80
2022/01/03 04:58:02;;;;;;;24.60;4.50;;;9.20;99.90;;;;;;5018177;28;20037;-80
2022/01/03 05:00:28;;;;;;;23.20;5.00;;;9.20;99.90;;;;;;5038537;28;20468;-80
2022/01/03 05:02:54;;;;;;;25.92;3.75;;;9.20;99.90;;;;;;5036998;28;20044;-80
2022/01/03 05:05:19;;;;;;;22.92;4.50;;;9.20;99.90;;;;;;5023297;28;20380;-80
2022/01/03 05:07:46;;;;;;;23.52;3.60;;;9.20;99.90;;;;;;5016696;28;20510;-80
2022/01/03 05:10:11;;;;;;;17.55;3.47;;;9.20;99.90;;;;;;5016190;28;20561;-80
2022/01/03 05:12:37;;;;;;;26.27;4.88;;;9.10;99.90;;;;;;5021016;28;20057;-81
2022/01/03 05:15:03;;;;;;;32.33;5.55;;;9.10;99.90;;;;;;5020222;28;20789;-80
2022/01/03 05:17:31;;;;;;;21.13;4.75;;;9.10;99.90;;;;;;4999530;28;20045;-81
2022/01/03 05:19:57;;;;;;;27.75;5.13;;;9.10;99.90;;;;;;5014911;28;20037;-80
2022/01/03 05:22:23;;;;;;;28.25;4.97;;;9.20;99.90;;;;;;5029723;28;20105;-80
2022/01/03 05:24:49;;;;;;;26.25;4.70;;;9.10;99.90;;;;;;5012673;28;20041;-80
2022/01/03 05:27:14;;;;;;;20.88;4.82;;;9.10;99.90;;;;;;5014946;28;20040;-80
2022/01/03 05:29:43;;;;;;;27.63;4.38;;;9.10;99.90;;;;;;5022598;28;20479;-80
2022/01/03 05:32:09;;;;;;;26.58;5.18;;;9.10;99.90;;;;;;5015097;28;20045;-80
2022/01/03 05:34:35;;;;;;;33.17;4.55;;;9.10;99.90;;;;;;5015112;28;20073;-80
2022/01/03 05:37:00;;;;;;;22.70;5.53;;;9.10;99.90;;;;;;5038190;28;20029;-81
2022/01/03 05:39:26;;;;;;;22.15;4.18;;;9.10;99.90;;;;;;5040371;28;20038;-80
2022/01/03 05:41:52;;;;;;;28.20;4.43;;;9.10;99.90;;;;;;5012681;28;20128;-80
2022/01/03 05:44:17;;;;;;;26.05;4.53;;;9.10;99.90;;;;;;5019755;28;20033;-80
2022/01/03 05:46:44;;;;;;;27.00;5.05;;;9.10;99.90;;;;;;5009306;28;20446;-80
2022/01/03 05:49:11;;;;;;;28.75;5.28;;;9.10;99.90;;;;;;5000805;28;20087;-80
2022/01/03 05:51:37;;;;;;;24.67;4.45;;;9.20;99.90;;;;;;5007105;28;20041;-80
2022/01/03 05:54:03;;;;;;;26.63;5.47;;;9.10;99.90;;;;;;4996094;28;20065;-80
2022/01/03 05:56:30;;;;;;;26.65;4.57;;;9.20;99.90;;;;;;5021464;28;20108;-80
2022/01/03 05:58:55;;;;;;;29.17;5.35;;;9.20;99.90;;;;;;5020607;28;20124;-80
2022/01/03 06:01:23;;;;;;;23.30;5.32;;;9.10;99.90;;;;;;4999406;28;20108;-80
2022/01/03 06:03:58;;;;;;;29.23;5.07;;;9.10;99.90;;;;;;5014386;28;20041;-80
2022/01/03 06:06:53;;;;;;;27.30;4.82;;;9.10;99.90;;;;;;5035849;28;20053;-80
2022/01/03 06:09:10;;;;;;;28.70;4.85;;;9.10;99.90;;;;;;5012687;28;20044;-80
2022/01/03 06:11:36;;;;;;;28.17;5.13;;;9.10;99.90;;;;;;5018566;28;20102;-80
2022/01/03 06:14:01;;;;;;;25.25;5.72;;;9.00;99.90;;;;;;5018014;28;20037;-80
2022/01/03 06:16:27;;;;;;;22.98;4.95;;;9.00;99.90;;;;;;5013343;28;20048;-80
2022/01/03 06:18:53;;;;;;;26.20;4.88;;;9.10;99.90;;;;;;5005888;28;20052;-80
2022/01/03 06:21:18;;;;;;;28.30;4.95;;;9.10;99.90;;;;;;5004421;28;20469;-80
2022/01/03 06:23:46;;;;;;;32.88;5.50;;;9.10;99.90;;;;;;5037931;28;20536;-81
2022/01/03 06:26:12;;;;;;;33.10;5.35;;;9.00;99.90;;;;;;5013443;28;20064;-80
2022/01/03 06:28:38;;;;;;;27.80;4.53;;;9.10;99.90;;;;;;5018290;28;20049;-80
2022/01/03 06:31:03;;;;;;;32.30;5.70;;;9.10;99.90;;;;;;5019433;28;20107;-80
2022/01/03 06:33:29;;;;;;;29.25;5.07;;;9.10;99.90;;;;;;5014072;28;20036;-80
2022/01/03 06:35:55;;;;;;;28.05;5.50;;;9.10;99.90;;;;;;5014608;28;20057;-80
2022/01/03 06:38:20;;;;;;;28.95;4.72;;;9.10;99.90;;;;;;5017378;28;20173;-80
2022/01/03 06:40:46;;;;;;;26.60;4.38;;;9.10;99.90;;;;;;5016245;28;20036;-80
2022/01/03 06:43:12;;;;;;;30.08;4.80;;;9.00;99.90;;;;;;5016943;28;20071;-80
2022/01/03 06:45:37;;;;;;;25.98;4.82;;;9.10;99.90;;;;;;5015565;28;20119;-80
2022/01/03 06:48:06;;;;;;;28.17;4.63;;;9.00;99.90;;;;;;5008224;28;20033;-80
2022/01/03 06:50:34;;;;;;;31.52;4.80;;;9.00;99.90;;;;;;5020703;28;20037;-80
2022/01/03 06:53:00;;;;;;;24.45;5.15;;;9.00;99.90;;;;;;4999761;28;20041;-80
2022/01/03 06:55:25;;;;;;;26.42;4.65;;;9.00;99.90;;;;;;4987687;28;20049;-80
2022/01/03 06:57:51;;;;;;;26.25;5.47;;;8.90;99.90;;;;;;5016566;28;20069;-80
2022/01/03 07:00:17;;;;;;;28.90;5.18;;;8.90;99.90;;;;;;5025597;28;20041;-80
2022/01/03 07:02:45;;;;;;;29.35;4.40;;;8.90;99.90;;;;;;4998897;28;20032;-81
2022/01/03 07:05:12;;;;;;;28.63;4.70;;;8.90;99.90;;;;;;5015918;28;20033;-80
2022/01/03 07:07:38;;;;;;;21.90;5.00;;;8.90;99.90;;;;;;5013120;28;20459;-80
2022/01/03 07:10:04;;;;;;;25.35;4.32;;;8.90;99.90;;;;;;5014952;28;20040;-80
2022/01/03 07:12:30;;;;;;;30.77;4.68;;;8.90;99.90;;;;;;5016402;28;20124;-80
2022/01/03 07:20:10;;;;;;;22.60;4.75;;;9.00;99.90;;;;;;5032994;28;20472;-80
2022/01/03 07:22:40;;;;;;;32.15;5.60;;;8.90;99.90;;;;;;4998231;28;20602;-81
2022/01/03 07:25:09;;;;;;;21.10;4.43;;;8.80;99.90;;;;;;5019894;28;20060;-80
2022/01/03 07:27:36;;;;;;;27.90;5.75;;;8.80;99.90;;;;;;5002473;28;20138;-80
2022/01/03 07:30:04;;;;;;;31.90;6.03;;;8.80;99.90;;;;;;5001283;28;20047;-80
2022/01/03 07:32:29;;;;;;;32.00;5.63;;;8.80;99.90;;;;;;5024705;28;20435;-80
2022/01/03 07:34:55;;;;;;;29.75;5.15;;;8.90;99.90;;;;;;5013003;28;20076;-80
2022/01/03 07:37:21;;;;;;;27.85;4.88;;;8.90;99.90;;;;;;5014723;28;20041;-80
2022/01/03 07:39:46;;;;;;;23.15;5.15;;;9.00;99.90;;;;;;5016504;28;20197;-80
2022/01/03 07:42:12;;;;;;;28.60;5.75;;;8.90;99.90;;;;;;5013404;28;20531;-80
2022/01/03 07:44:38;;;;;;;30.70;5.63;;;8.90;99.90;;;;;;4999622;28;20389;-80
2022/01/03 07:47:05;;;;;;;34.58;5.68;;;8.90;99.90;;;;;;5013359;28;20037;-80
2022/01/03 07:49:31;;;;;;;28.15;5.05;;;8.90;99.90;;;;;;5012494;28;20278;-80
2022/01/03 07:51:58;;;;;;;26.08;4.70;;;8.90;99.90;;;;;;5022681;28;20346;-81
2022/01/03 07:54:23;;;;;;;30.92;5.20;;;9.00;99.90;;;;;;5016343;28;20049;-80
2022/01/03 07:56:49;;;;;;;24.83;5.05;;;9.00;99.90;;;;;;5037219;28;20041;-80
2022/01/03 07:59:15;;;;;;;29.02;4.88;;;8.90;99.90;;;;;;5037794;28;20033;-80
2022/01/03 08:01:41;;;;;;;26.52;7.15;;;9.00;99.90;;;;;;5003377;28;20454;-80
2022/01/03 08:04:07;;;;;;;30.38;6.20;;;9.10;99.90;;;;;;5039811;28;20723;-80
2022/01/03 08:06:33;;;;;;;28.70;5.22;;;9.00;99.90;;;;;;5004418;28;20512;-81
2022/01/03 08:08:59;;;;;;;29.63;5.10;;;9.10;99.90;;;;;;5000927;28;20131;-80
2022/01/03 08:11:26;;;;;;;29.30;5.50;;;9.20;99.90;;;;;;5004006;28;20124;-80
2022/01/03 08:13:53;;;;;;;24.83;4.85;;;9.20;99.90;;;;;;5018935;28;20432;-80
2022/01/03 08:16:18;;;;;;;31.23;5.15;;;9.30;99.90;;;;;;5015597;28;20428;-80
2022/01/03 08:18:44;;;;;;;35.05;6.38;;;9.40;99.90;;;;;;5019001;28;20598;-80
2022/01/03 08:21:10;;;;;;;31.20;4.30;;;9.40;99.90;;;;;;5001163;28;20043;-80
2022/01/03 08:23:36;;;;;;;24.38;4.43;;;9.40;99.90;;;;;;5020877;28;20111;-81
2022/01/03 08:26:02;;;;;;;29.15;4.57;;;9.40;99.90;;;;;;5025299;28;20117;-80
2022/01/03 08:28:27;;;;;;;30.52;4.90;;;9.50;99.90;;;;;;5015742;28;22093;-80
2022/01/03 08:30:53;;;;;;;27.00;5.20;;;9.40;99.90;;;;;;5002398;28;20459;-80
2022/01/03 08:33:19;;;;;;;28.13;4.60;;;9.40;99.90;;;;;;5024719;28;20037;-80
2022/01/03 08:35:44;;;;;;;23.05;4.90;;;9.50;99.90;;;;;;5004007;28;20065;-80
2022/01/03 08:38:10;;;;;;;25.90;4.70;;;9.50;99.90;;;;;;4999631;28;20050;-80
2022/01/03 08:40:36;;;;;;;27.35;5.78;;;9.50;99.90;;;;;;4995514;28;20029;-80
2022/01/03 08:43:02;;;;;;;30.27;4.68;;;9.50;99.90;;;;;;4982832;28;20034;-80
2022/01/03 08:45:27;;;;;;;26.95;4.68;;;9.60;99.90;;;;;;5001080;28;20308;-80
2022/01/03 08:47:53;;;;;;;32.55;5.85;;;9.60;99.90;;;;;;4980167;28;20046;-80
2022/01/03 08:50:19;;;;;;;32.72;5.25;;;9.60;99.90;;;;;;4997736;28;20045;-80
2022/01/03 08:52:48;;;;;;;28.80;4.85;;;9.60;99.90;;;;;;5003048;28;20176;-81
2022/01/03 08:55:18;;;;;;;21.85;4.47;;;9.60;99.90;;;;;;4980850;28;20113;-81
2022/01/03 08:57:46;;;;;;;25.35;4.65;;;9.70;99.90;;;;;;4981115;28;20085;-80
2022/01/03 09:00:12;;;;;;;27.73;4.93;;;9.70;99.90;;;;;;4984245;28;20048;-80
2022/01/03 09:02:38;;;;;;;24.83;5.18;;;9.70;99.90;;;;;;4988495;28;20116;-80
2022/01/03 09:05:04;;;;;;;28.98;4.75;;;9.70;99.90;;;;;;4989994;28;20509;-80
2022/01/03 09:07:30;;;;;;;21.92;4.95;;;9.70;99.90;;;;;;5004104;28;20057;-81
2022/01/03 09:09:58;;;;;;;24.20;5.53;;;9.70;99.90;;;;;;5002681;28;20196;-81
2022/01/03 09:12:24;;;;;;;27.65;8.90;;;9.70;99.90;;;;;;5000710;28;20624;-80
2022/01/03 09:14:49;;;;;;;26.35;6.97;;;9.80;99.90;;;;;;5001731;28;20203;-80
2022/01/03 09:17:15;;;;;;;27.30;4.85;;;9.70;99.90;;;;;;4999219;28;20034;-80
2022/01/03 09:19:40;;;;;;;27.73;4.20;;;9.70;99.90;;;;;;5007005;28;20052;-80
2022/01/03 09:22:15;;;;;;;27.08;4.95;;;9.80;99.90;;;;;;4980116;28;20083;-81
2022/01/03 09:24:47;;;;;;;26.25;4.40;;;9.90;99.90;;;;;;4984163;28;20528;-81
2022/01/03 09:30:01;;;;;;;23.83;4.20;;;9.90;99.90;;;;;;4998515;28;20354;-80
2022/01/03 09:32:27;;;;;;;24.90;5.13;;;9.90;99.90;;;;;;5015394;28;20041;-80
2022/01/03 09:34:53;;;;;;;19.02;4.18;;;10.00;99.90;;;;;;5004180;28;20518;-80
2022/01/03 09:37:20;;;;;;;27.52;4.63;;;10.00;99.90;;;;;;5020850;28;20037;-81
2022/01/03 09:39:49;;;;;;;25.23;4.63;;;10.00;99.90;;;;;;5021300;28;20037;-80
2022/01/03 09:42:29;;;;;;;21.33;4.13;;;10.00;99.90;;;;;;5020517;28;20044;-80
2022/01/03 09:44:56;;;;;;;26.98;4.80;;;10.00;99.90;;;;;;5017801;28;20378;-80
2022/01/03 09:47:23;;;;;;;20.35;4.32;;;10.00;99.90;;;;;;5021296;28;20052;-80
2022/01/03 09:49:50;;;;;;;23.30;4.38;;;10.10;99.90;;;;;;5015369;28;20076;-80
2022/01/03 09:52:19;;;;;;;23.27;4.13;;;10.10;99.90;;;;;;5003720;28;20033;-81
2022/01/03 09:54:46;;;;;;;24.65;4.10;;;10.10;99.90;;;;;;4998857;28;20393;-80
2022/01/03 09:57:14;;;;;;;23.10;4.70;;;10.10;99.90;;;;;;5000836;28;20261;-81
2022/01/03 09:59:40;;;;;;;25.35;4.68;;;10.10;99.90;;;;;;5006512;28;20112;-80
2022/01/03 10:02:06;;;;;;;25.35;4.82;;;10.10;99.90;;;;;;5018360;28;20037;-81
2022/01/03 10:04:32;;;;;;;19.05;5.55;;;10.10;99.90;;;;;;5039247;28;20133;-80
2022/01/03 10:06:59;;;;;;;25.13;4.28;;;10.20;99.90;;;;;;5005597;28;20037;-80
2022/01/03 10:09:26;;;;;;;22.30;4.60;;;10.20;99.90;;;;;;5007740;28;20041;-80
2022/01/03 10:11:52;;;;;;;23.15;5.03;;;10.30;99.90;;;;;;5037766;28;20817;-81
2022/01/03 10:14:18;;;;;;;23.92;4.47;;;10.30;99.90;;;;;;5021237;28;21046;-80
2022/01/03 10:16:46;;;;;;;23.75;4.60;;;10.30;99.90;;;;;;5029404;28;20727;-80
2022/01/03 10:19:13;;;;;;;25.23;4.55;;;10.30;99.90;;;;;;5011315;28;20292;-80
2022/01/03 10:21:44;;;;;;;24.15;4.60;;;10.30;99.90;;;;;;4996861;28;20400;-81
2022/01/03 10:24:12;;;;;;;18.50;3.85;;;10.30;99.90;;;;;;4998652;28;20446;-80
2022/01/03 10:26:38;;;;;;;22.92;3.70;;;10.30;99.90;;;;;;5019600;28;20048;-80
2022/01/03 10:29:12;;;;;;;18.52;3.58;;;10.30;99.90;;;;;;5020479;28;20480;-80
2022/01/03 10:31:39;;;;;;;28.73;5.15;;;10.30;99.90;;;;;;5014455;28;20444;-80
2022/01/03 10:34:08;;;;;;;24.20;5.05;;;10.30;99.90;;;;;;5018664;28;20033;-81
2022/01/03 10:36:35;;;;;;;18.35;4.35;;;10.30;99.90;;;;;;5035696;28;20091;-80
2022/01/03 10:39:32;;;;;;;21.70;4.05;;;10.20;99.90;;;;;;5015832;28;20520;-80
2022/01/03 10:42:17;;;;;;;25.20;4.20;;;10.30;99.90;;;;;;4986062;28;20052;-81
2022/01/03 10:44:44;;;;;;;20.00;3.88;;;10.30;99.90;;;;;;5021278;28;20052;-81
2022/01/03 10:47:16;;;;;;;24.45;5.07;;;10.30;99.90;;;;;;5016440;28;20079;-81
2022/01/03 10:49:44;;;;;;;18.42;3.72;;;10.30;99.90;;;;;;5014431;28;20069;-80
2022/01/03 10:52:29;;;;;;;24.80;3.88;;;10.40;99.90;;;;;;5015188;28;20052;-81
2022/01/03 10:55:11;;;;;;;20.90;4.93;;;10.40;99.90;;;;;;4998757;28;20366;-80
2022/01/03 10:57:56;;;;;;;20.40;4.32;;;10.40;99.90;;;;;;5019754;28;20033;-80
2022/01/03 11:00:25;;;;;;;21.35;4.20;;;10.40;99.90;;;;;;5021774;28;20049;-80
2022/01/03 11:05:51;;;;;;;19.70;4.85;;;10.40;99.90;;;;;;5014604;28;20123;-80
2022/01/03 11:11:02;;;;;;;;;;;10.50;99.90;;;;;;5016613;28;20257;-80
2022/01/03 11:13:28;;;;;;;27.40;4.88;;;10.50;99.90;;;;;;5018859;28;20144;-80
2022/01/03 11:15:53;;;;;;;25.35;4.32;;;10.40;99.90;;;;;;4998673;28;20041;-80
2022/01/03 11:18:22;;;;;;;23.42;4.63;;;10.40;99.90;;;;;;5034457;28;20111;-81
2022/01/03 11:21:11;;;;;;;24.45;4.97;;;10.50;99.90;;;;;;5009660;28;20080;-80
2022/01/03 11:23:38;;;;;;;23.20;4.70;;;10.50;99.90;;;;;;4990444;28;20136;-80
2022/01/03 11:26:16;;;;;;;16.63;3.50;;;10.50;99.90;;;;;;4992527;28;20049;-80
2022/01/03 11:28:43;;;;;;;21.15;4.10;;;10.50;99.90;;;;;;5014904;28;20090;-80
2022/01/03 11:31:10;;;;;;;19.83;4.05;;;10.50;99.90;;;;;;4997720;28;20041;-80
2022/01/03 11:33:37;;;;;;;22.02;3.92;;;10.60;99.90;;;;;;5018114;28;20032;-80
2022/01/03 11:36:04;;;;;;;24.58;5.00;;;10.60;99.90;;;;;;5035318;28;20279;-80
2022/01/03 11:38:33;;;;;;;25.85;4.30;;;10.60;99.90;;;;;;5025255;28;20079;-80
2022/01/03 11:41:05;;;;;;;22.00;3.78;;;10.60;99.90;;;;;;5011578;28;20326;-80
2022/01/03 11:43:35;;;;;;;22.15;3.88;;;10.60;99.90;;;;;;5018179;28;20135;-80
2022/01/03 11:46:00;;;;;;;21.35;4.97;;;10.60;99.90;;;;;;5021548;28;20052;-80
2022/01/03 11:48:28;;;;;;;24.55;4.68;;;10.70;99.90;;;;;;5007833;28;20062;-80
2022/01/03 11:50:56;;;;;;;22.98;4.70;;;10.60;99.90;;;;;;5008575;28;20044;-81
2022/01/03 11:53:23;;;;;;;21.65;4.22;;;10.60;99.90;;;;;;5009872;28;20043;-80
2022/01/03 11:55:54;;;;;;;18.52;3.70;;;10.70;99.90;;;;;;5019016;28;20029;-80
2022/01/03 12:04:08;;;;;;;18.23;3.60;;;10.90;99.90;;;;;;5032415;28;20041;-80
2022/01/03 12:06:34;;;;;;;22.35;4.07;;;10.90;99.90;;;;;;5002747;28;20060;-80
2022/01/03 12:09:06;;;;;;;15.95;4.07;;;10.90;99.90;;;;;;5012925;28;20041;-81
2022/01/03 12:11:32;;;;;;;18.38;4.07;;;11.10;99.90;;;;;;5001628;28;20049;-80
2022/01/03 12:14:04;;;;;;;18.17;3.83;;;11.20;99.90;;;;;;5010001;28;20040;-81
2022/01/03 12:16:43;;;;;;;18.88;3.60;;;11.10;99.90;;;;;;5021903;28;20705;-80
2022/01/03 12:19:29;;;;;;;21.05;4.18;;;11.00;99.90;;;;;;5021481;28;20409;-81
2022/01/03 12:21:58;;;;;;;22.80;4.15;;;11.20;99.90;;;;;;5040238;28;20469;-81
2022/01/03 12:24:27;;;;;;;26.17;3.88;;;11.20;99.90;;;;;;5014076;28;20749;-81
2022/01/03 12:27:13;;;;;;;27.63;4.90;;;11.10;99.90;;;;;;5003926;28;20060;-80
2022/01/03 12:29:53;;;;;;;21.27;4.00;;;11.20;99.90;;;;;;5003643;28;20556;-80
2022/01/03 12:32:40;;;;;;;16.70;3.55;;;11.20;99.90;;;;;;5022319;28;20041;-80
2022/01/03 12:35:09;;;;;;;19.23;3.42;;;11.30;99.90;;;;;;5021219;28;20517;-80
2022/01/03 12:37:37;;;;;;;23.33;4.30;;;11.20;99.90;;;;;;4999450;28;20103;-81
2022/01/03 12:40:05;;;;;;;20.75;3.95;;;11.20;99.90;;;;;;4981536;28;20038;-81
2022/01/03 12:42:49;;;;;;;15.98;3.83;;;11.10;99.90;;;;;;5000281;28;20524;-80
2022/01/03 12:45:17;;;;;;;21.23;3.97;;;11.00;99.90;;;;;;5002742;28;20049;-80
2022/01/03 12:47:43;;;;;;;19.23;3.45;;;11.00;99.90;;;;;;4999701;28;20030;-80
2022/01/03 12:50:29;;;;;;;17.50;3.90;;;10.90;99.90;;;;;;4987352;28;20125;-81
2022/01/03 12:52:58;;;;;;;23.73;4.35;;;10.90;99.90;;;;;;5001154;28;20040;-80
2022/01/03 12:55:41;;;;;;;19.23;3.90;;;11.10;99.90;;;;;;4999353;28;20041;-81
2022/01/03 12:58:16;;;;;;;23.02;4.30;;;11.10;99.90;;;;;;5018024;28;20477;-80
2022/01/03 13:00:46;;;;;;;24.83;4.75;;;11.20;99.90;;;;;;4988888;28;20168;-81
2022/01/03 13:03:28;;;;;;;19.52;3.90;;;11.10;99.90;;;;;;5011117;28;20451;-80
2022/01/03 13:06:16;;;;;;;22.00;3.72;;;10.90;99.90;;;;;;4997137;28;20049;-80
2022/01/03 13:08:48;;;;;;;23.25;4.25;;;10.90;99.90;;;;;;4994947;28;20128;-80
2022/01/03 13:11:33;;;;;;;25.08;5.07;;;11.00;99.90;;;;;;4997268;28;20460;-80
2022/01/03 13:14:12;;;;;;;19.17;4.40;;;11.10;99.90;;;;;;4984429;28;20048;-80
2022/01/03 13:16:47;;;;;;;20.05;4.15;;;11.00;99.90;;;;;;4987243;28;20071;-81